Time,TemperatureF,DewpointF,PressureIn,WindDirection,WindDirectionDegrees,WindSpeedMPH,WindSpeedGustMPH,Humidity,HourlyPrecipIn,Conditions,Clouds,dailyrainin,SoftwareType,DateUTC
2013-07-07 00:01:00,69.6,39.3,26.72,NE,47,0.0,2.2,33,0.00,,---,0.00,VWS V14.01,2013-07-07 05:01:00,
2013-07-07 00:06:00,69.4,39.1,26.72,NE,47,0.0,0.0,33,0.00,,---,0.00,VWS V14.01,2013-07-07 05:06:00,
2013-07-07 00:11:00,69.1,38.8,26.72,NE,47,0.0,0.0,33,0.00,,---,0.00,VWS V14.01,2013-07-07 05:11:00,
2013-07-07 00:16:00,68.9,38.6,26.75,NE,47,0.0,0.0,33,0.00,,---,0.00,VWS V14.01,2013-07-07 05:16:00,
2013-07-07 00:21:00,68.7,38.5,26.75,NE,47,0.0,0.0,33,0.00,,---,0.00,VWS V14.01,2013-07-07 05:21:00,
2013-07-07 00:26:00,68.7,38.5,26.75,NE,47,0.0,0.0,33,0.00,,---,0.00,VWS V14.01,2013-07-07 05:26:00,
2013-07-07 00:31:00,68.7,38.5,26.75,NE,47,0.0,0.0,33,0.00,,---,0.00,VWS V14.01,2013-07-07 05:31:00,
2013-07-07 00:36:00,68.5,38.3,26.75,NE,47,0.0,0.0,33,0.00,,---,0.00,VWS V14.01,2013-07-07 05:36:00,
2013-07-07 00:41:00,68.4,38.2,26.75,NE,47,0.0,0.0,33,0.00,,---,0.00,VWS V14.01,2013-07-07 05:41:00,
2013-07-07 00:46:00,68.4,38.2,26.72,NE,47,0.0,0.0,33,0.00,,---,0.00,VWS V14.01,2013-07-07 05:46:00,
2013-07-07 00:51:00,68.2,38.0,26.72,NE,47,0.0,0.0,33,0.00,,---,0.00,VWS V14.01,2013-07-07 05:51:00,
2013-07-07 00:56:00,68.0,37.8,26.72,North,349,2.2,2.2,33,0.00,,---,0.00,VWS V14.01,2013-07-07 05:56:00,
2013-07-07 01:01:00,67.6,37.5,26.75,North,349,0.0,0.0,33,0.00,,---,0.00,VWS V14.01,2013-07-07 06:01:00,
2013-07-07 01:06:00,67.3,37.2,26.75,North,349,0.0,0.0,33,0.00,,---,0.00,VWS V14.01,2013-07-07 06:06:00,
2013-07-07 01:11:00,67.1,37.1,26.75,North,349,0.0,0.0,33,0.00,,---,0.00,VWS V14.01,2013-07-07 06:11:00,
2013-07-07 01:16:00,67.1,37.1,26.72,North,349,0.0,0.0,33,0.00,,---,0.00,VWS V14.01,2013-07-07 06:16:00,
2013-07-07 01:21:00,66.9,36.9,26.72,North,349,0.0,0.0,33,0.00,,---,0.00,VWS V14.01,2013-07-07 06:21:00,
2013-07-07 01:26:00,66.6,36.6,26.72,North,349,0.0,0.0,33,0.00,,---,0.00,VWS V14.01,2013-07-07 06:26:00,
2013-07-07 01:31:00,66.4,36.4,26.72,North,349,0.0,0.0,33,0.00,,---,0.00,VWS V14.01,2013-07-07 06:31:00,
2013-07-07 01:36:00,66.0,36.9,26.72,North,349,0.0,0.0,34,0.00,,---,0.00,VWS V14.01,2013-07-07 06:36:00,
2013-07-07 01:41:00,66.2,36.3,26.72,North,349,0.0,0.0,33,0.00,,---,0.00,VWS V14.01,2013-07-07 06:41:00,
2013-07-07 01:46:00,66.2,36.3,26.75,North,349,0.0,0.0,33,0.00,,---,0.00,VWS V14.01,2013-07-07 06:46:00,
2013-07-07 01:51:00,66.2,36.3,26.75,North,349,0.0,0.0,33,0.00,,---,0.00,VWS V14.01,2013-07-07 06:51:00,
2013-07-07 01:56:00,66.4,36.4,26.75,North,349,2.7,2.7,33,0.00,,---,0.00,VWS V14.01,2013-07-07 06:56:00,
2013-07-07 02:01:00,66.4,36.4,26.75,North,349,2.7,3.6,33,0.00,,---,0.00,VWS V14.01,2013-07-07 07:01:00,
2013-07-07 02:06:00,66.2,36.3,26.75,NNW,335,0.0,0.0,33,0.00,,---,0.00,VWS V14.01,2013-07-07 07:06:00,
2013-07-07 02:11:00,66.4,36.4,26.75,NNW,340,0.0,0.0,33,0.00,,---,0.00,VWS V14.01,2013-07-07 07:11:00,
2013-07-07 02:16:00,66.0,36.9,26.75,NNW,340,0.0,0.0,34,0.00,,---,0.00,VWS V14.01,2013-07-07 07:16:00,
2013-07-07 02:21:00,65.8,36.7,26.75,NNW,333,0.0,0.0,34,0.00,,---,0.00,VWS V14.01,2013-07-07 07:21:00,
2013-07-07 02:26:00,65.7,36.6,26.75,NNW,333,0.0,0.0,34,0.00,,---,0.00,VWS V14.01,2013-07-07 07:26:00,
2013-07-07 02:31:00,65.5,36.4,26.75,NNW,333,0.0,0.0,34,0.00,,---,0.00,VWS V14.01,2013-07-07 07:31:00,
2013-07-07 02:36:00,65.8,36.7,26.75,NNW,328,3.1,3.1,34,0.00,,---,0.00,VWS V14.01,2013-07-07 07:36:00,
2013-07-07 02:41:00,66.0,36.9,26.75,NW,312,2.7,2.7,34,0.00,,---,0.00,VWS V14.01,2013-07-07 07:41:00,
2013-07-07 02:46:00,65.7,36.6,26.75,NW,314,0.0,0.0,34,0.00,,---,0.00,VWS V14.01,2013-07-07 07:46:00,
2013-07-07 02:51:00,65.7,36.6,26.75,NW,316,0.0,0.0,34,0.00,,---,0.00,VWS V14.01,2013-07-07 07:51:00,
2013-07-07 02:56:00,65.7,36.6,26.75,NW,316,2.7,2.7,34,0.00,,---,0.00,VWS V14.01,2013-07-07 07:56:00,
2013-07-07 03:01:00,65.8,36.7,26.75,NW,308,3.6,3.6,34,0.00,,---,0.00,VWS V14.01,2013-07-07 08:01:00,
2013-07-07 03:06:00,65.8,36.7,26.75,NNW,332,0.0,0.0,34,0.00,,---,0.00,VWS V14.01,2013-07-07 08:06:00,
2013-07-07 03:11:00,65.7,36.6,26.75,NNW,332,0.0,0.0,34,0.00,,---,0.00,VWS V14.01,2013-07-07 08:11:00,
2013-07-07 03:16:00,65.8,36.7,26.75,WNW,286,3.6,3.6,34,0.00,,---,0.00,VWS V14.01,2013-07-07 08:16:00,
2013-07-07 03:21:00,65.8,36.7,26.75,NNW,332,3.1,3.1,34,0.00,,---,0.00,VWS V14.01,2013-07-07 08:21:00,
2013-07-07 03:26:00,65.8,36.7,26.75,NW,325,2.2,2.7,34,0.00,,---,0.00,VWS V14.01,2013-07-07 08:26:00,
2013-07-07 03:31:00,65.7,36.6,26.75,NW,326,2.2,2.7,34,0.00,,---,0.00,VWS V14.01,2013-07-07 08:31:00,
2013-07-07 03:36:00,65.7,36.6,26.75,NNW,345,2.7,2.7,34,0.00,,---,0.00,VWS V14.01,2013-07-07 08:36:00,
2013-07-07 03:41:00,65.5,36.4,26.75,NNW,345,0.0,0.0,34,0.00,,---,0.00,VWS V14.01,2013-07-07 08:41:00,
2013-07-07 03:46:00,65.3,36.2,26.75,NNW,335,0.0,0.0,34,0.00,,---,0.00,VWS V14.01,2013-07-07 08:46:00,
2013-07-07 03:51:00,65.5,36.4,26.75,NNW,333,4.0,4.0,34,0.00,,---,0.00,VWS V14.01,2013-07-07 08:51:00,
2013-07-07 03:56:00,65.5,36.4,26.75,NW,315,3.6,3.6,34,0.00,,---,0.00,VWS V14.01,2013-07-07 08:56:00,
2013-07-07 04:01:00,65.5,36.4,26.75,SE,138,3.6,4.5,34,0.00,,---,0.00,VWS V14.01,2013-07-07 09:01:00,
2013-07-07 04:06:00,65.3,36.2,26.75,SE,138,2.7,2.7,34,0.00,,---,0.00,VWS V14.01,2013-07-07 09:06:00,
2013-07-07 04:11:00,65.5,36.4,26.75,SE,139,0.0,2.2,34,0.00,,---,0.00,VWS V14.01,2013-07-07 09:11:00,
2013-07-07 04:16:00,65.5,36.4,26.75,SE,139,3.1,3.1,34,0.00,,---,0.00,VWS V14.01,2013-07-07 09:16:00,
2013-07-07 04:21:00,64.6,35.6,26.75,SE,139,0.0,0.0,34,0.00,,---,0.00,VWS V14.01,2013-07-07 09:21:00,
2013-07-07 04:26:00,64.4,35.5,26.75,SE,139,0.0,0.0,34,0.00,,---,0.00,VWS V14.01,2013-07-07 09:26:00,
2013-07-07 04:31:00,64.2,36.0,26.75,SE,139,0.0,0.0,35,0.00,,---,0.00,VWS V14.01,2013-07-07 09:31:00,
2013-07-07 04:36:00,64.4,36.2,26.75,SE,139,0.0,0.0,35,0.00,,---,0.00,VWS V14.01,2013-07-07 09:36:00,
2013-07-07 04:41:00,64.6,36.3,26.75,SE,139,0.0,0.0,35,0.00,,---,0.00,VWS V14.01,2013-07-07 09:41:00,
2013-07-07 04:46:00,64.2,36.7,26.75,SE,139,0.0,0.0,36,0.00,,---,0.00,VWS V14.01,2013-07-07 09:46:00,
2013-07-07 04:51:00,64.2,36.7,26.75,SE,139,0.0,0.0,36,0.00,,---,0.00,VWS V14.01,2013-07-07 09:51:00,
2013-07-07 04:56:00,64.0,36.6,26.75,SE,139,0.0,0.0,36,0.00,,---,0.00,VWS V14.01,2013-07-07 09:56:00,
2013-07-07 05:01:00,63.7,35.5,26.78,SE,139,0.0,0.0,35,0.00,,---,0.00,VWS V14.01,2013-07-07 10:01:00,
2013-07-07 05:06:00,63.0,34.9,26.78,SE,139,0.0,0.0,35,0.00,,---,0.00,VWS V14.01,2013-07-07 10:06:00,
2013-07-07 05:11:00,62.8,35.5,26.78,SE,139,0.0,0.0,36,0.00,,---,0.00,VWS V14.01,2013-07-07 10:11:00,
2013-07-07 05:16:00,63.0,35.6,26.75,SE,139,0.0,0.0,36,0.00,,---,0.00,VWS V14.01,2013-07-07 10:16:00,
2013-07-07 05:21:00,63.0,35.6,26.75,SE,139,0.0,0.0,36,0.00,,---,0.00,VWS V14.01,2013-07-07 10:21:00,
2013-07-07 05:26:00,62.6,35.3,26.75,SE,139,0.0,0.0,36,0.00,,---,0.00,VWS V14.01,2013-07-07 10:26:00,
2013-07-07 05:31:00,62.2,35.0,26.78,SE,139,0.0,0.0,36,0.00,,---,0.00,VWS V14.01,2013-07-07 10:31:00,
2013-07-07 05:36:00,62.8,36.2,26.78,SE,139,0.0,0.0,37,0.00,,---,0.00,VWS V14.01,2013-07-07 10:36:00,
2013-07-07 05:41:00,62.6,36.0,26.78,SE,139,0.0,0.0,37,0.00,,---,0.00,VWS V14.01,2013-07-07 10:41:00,
2013-07-07 05:46:00,63.1,38.5,26.78,SE,139,0.0,0.0,40,0.00,,---,0.00,VWS V14.01,2013-07-07 10:46:00,
2013-07-07 05:51:00,63.7,40.8,26.78,SE,139,3.6,3.6,43,0.00,,---,0.00,VWS V14.01,2013-07-07 10:51:00,
2013-07-07 05:56:00,63.5,40.6,26.78,SSE,163,2.2,2.2,43,0.00,,---,0.00,VWS V14.01,2013-07-07 10:56:00,
2013-07-07 06:01:00,63.5,39.4,26.78,SSE,163,0.0,0.0,41,0.00,,---,0.00,VWS V14.01,2013-07-07 11:01:00,
2013-07-07 06:06:00,63.5,38.1,26.78,SSE,163,0.0,0.0,39,0.00,,---,0.00,VWS V14.01,2013-07-07 11:06:00,
2013-07-07 06:11:00,63.5,38.1,26.78,South,175,0.0,0.0,39,0.00,,---,0.00,VWS V14.01,2013-07-07 11:11:00,
2013-07-07 06:16:00,63.1,37.8,26.78,South,175,0.0,0.0,39,0.00,,---,0.00,VWS V14.01,2013-07-07 11:16:00,
2013-07-07 06:21:00,63.0,37.6,26.78,South,175,0.0,0.0,39,0.00,,---,0.00,VWS V14.01,2013-07-07 11:21:00,
2013-07-07 06:26:00,62.6,37.3,26.78,South,175,0.0,0.0,39,0.00,,---,0.00,VWS V14.01,2013-07-07 11:26:00,
2013-07-07 06:31:00,62.8,38.1,26.78,South,175,0.0,0.0,40,0.00,,---,0.00,VWS V14.01,2013-07-07 11:31:00,
2013-07-07 06:36:00,63.0,38.3,26.78,South,175,0.0,0.0,40,0.00,,---,0.00,VWS V14.01,2013-07-07 11:36:00,
2013-07-07 06:41:00,63.5,38.8,26.78,South,190,2.7,2.7,40,0.00,,---,0.00,VWS V14.01,2013-07-07 11:41:00,
2013-07-07 06:46:00,64.0,38.6,26.78,South,190,0.0,0.0,39,0.00,,---,0.00,VWS V14.01,2013-07-07 11:46:00,
2013-07-07 06:51:00,64.0,37.9,26.78,South,190,2.7,2.7,38,0.00,,---,0.00,VWS V14.01,2013-07-07 11:51:00,
2013-07-07 06:56:00,64.2,36.7,26.78,South,190,0.0,0.0,36,0.00,,---,0.00,VWS V14.01,2013-07-07 11:56:00,
2013-07-07 07:01:00,64.0,35.9,26.78,South,190,0.0,0.0,35,0.00,,---,0.00,VWS V14.01,2013-07-07 12:01:00,
2013-07-07 07:06:00,64.9,36.7,26.78,WNW,292,2.2,2.2,35,0.00,,---,0.00,VWS V14.01,2013-07-07 12:06:00,
2013-07-07 07:11:00,65.8,36.7,26.78,WSW,246,0.0,0.0,34,0.00,,---,0.00,VWS V14.01,2013-07-07 12:11:00,
2013-07-07 07:16:00,66.2,36.3,26.78,WSW,242,0.0,0.0,33,0.00,,---,0.00,VWS V14.01,2013-07-07 12:16:00,
2013-07-07 07:21:00,66.6,36.6,26.78,WSW,241,2.7,2.7,33,0.00,,---,0.00,VWS V14.01,2013-07-07 12:21:00,
2013-07-07 07:26:00,67.3,37.2,26.78,WSW,241,0.0,0.0,33,0.00,,---,0.00,VWS V14.01,2013-07-07 12:26:00,
2013-07-07 07:31:00,68.4,38.2,26.78,WSW,257,0.0,0.0,33,0.00,,---,0.00,VWS V14.01,2013-07-07 12:31:00,
2013-07-07 07:36:00,68.0,37.8,26.78,WSW,243,0.0,0.0,33,0.00,,---,0.00,VWS V14.01,2013-07-07 12:36:00,
2013-07-07 07:41:00,69.1,38.8,26.78,WSW,243,0.0,0.0,33,0.00,,---,0.00,VWS V14.01,2013-07-07 12:41:00,
2013-07-07 07:46:00,70.2,39.0,26.81,WSW,243,0.0,0.0,32,0.00,,---,0.00,VWS V14.01,2013-07-07 12:46:00,
2013-07-07 07:51:00,70.0,38.8,26.81,WNW,295,0.0,0.0,32,0.00,,---,0.00,VWS V14.01,2013-07-07 12:51:00,
2013-07-07 07:56:00,72.5,41.0,26.81,NNW,332,2.7,3.6,32,0.00,,---,0.00,VWS V14.01,2013-07-07 12:56:00,
2013-07-07 08:01:00,73.6,41.1,26.81,NW,321,3.1,3.1,31,0.00,,---,0.00,VWS V14.01,2013-07-07 13:01:00,
2013-07-07 08:06:00,73.2,41.6,26.81,NW,317,0.0,0.0,32,0.00,,---,0.00,VWS V14.01,2013-07-07 13:06:00,
2013-07-07 08:11:00,74.5,41.9,26.81,South,179,4.0,4.0,31,0.00,,---,0.00,VWS V14.01,2013-07-07 13:11:00,
2013-07-07 08:16:00,73.2,41.6,26.81,South,190,2.7,3.1,32,0.00,,---,0.00,VWS V14.01,2013-07-07 13:16:00,
2013-07-07 08:21:00,74.8,42.2,26.81,SSW,209,0.0,0.0,31,0.00,,---,0.00,VWS V14.01,2013-07-07 13:21:00,
2013-07-07 08:26:00,75.9,43.1,26.81,South,191,3.1,3.1,31,0.00,,---,0.00,VWS V14.01,2013-07-07 13:26:00,
2013-07-07 08:31:00,74.5,41.9,26.81,SW,234,2.2,2.2,31,0.00,,---,0.00,VWS V14.01,2013-07-07 13:31:00,
2013-07-07 08:36:00,75.7,43.0,26.81,SSW,196,3.1,3.1,31,0.00,,---,0.00,VWS V14.01,2013-07-07 13:36:00,
2013-07-07 08:41:00,75.6,42.8,26.81,SW,227,0.0,0.0,31,0.00,,---,0.00,VWS V14.01,2013-07-07 13:41:00,
2013-07-07 08:46:00,77.9,44.9,26.81,WNW,283,2.2,2.2,31,0.00,,---,0.00,VWS V14.01,2013-07-07 13:46:00,
2013-07-07 08:51:00,77.9,44.9,26.81,South,172,2.2,3.6,31,0.00,,---,0.00,VWS V14.01,2013-07-07 13:51:00,
2013-07-07 08:56:00,79.7,45.6,26.81,NW,311,2.7,2.7,30,0.00,,---,0.00,VWS V14.01,2013-07-07 13:56:00,
2013-07-07 09:01:00,81.0,46.6,26.81,NW,311,0.0,0.0,30,0.00,,---,0.00,VWS V14.01,2013-07-07 14:01:00,
2013-07-07 09:06:00,83.7,48.1,26.81,NW,311,2.7,2.7,29,0.00,,---,0.00,VWS V14.01,2013-07-07 14:06:00,
2013-07-07 09:11:00,83.8,48.2,26.81,NNW,342,3.6,3.6,29,0.00,,---,0.00,VWS V14.01,2013-07-07 14:11:00,
2013-07-07 09:16:00,85.3,49.5,26.81,SE,144,0.0,0.0,29,0.00,,---,0.00,VWS V14.01,2013-07-07 14:16:00,
2013-07-07 09:21:00,86.5,50.5,26.81,NNW,336,3.6,3.6,29,0.00,,---,0.00,VWS V14.01,2013-07-07 14:21:00,
2013-07-07 09:26:00,86.4,50.4,26.81,North,0,2.7,2.7,29,0.00,,---,0.00,VWS V14.01,2013-07-07 14:26:00,
2013-07-07 09:31:00,86.7,50.7,26.84,NE,38,0.0,2.7,29,0.00,,---,0.00,VWS V14.01,2013-07-07 14:31:00,
2013-07-07 09:36:00,88.2,51.0,26.84,North,0,0.0,3.1,28,0.00,,---,0.00,VWS V14.01,2013-07-07 14:36:00,
2013-07-07 09:41:00,88.7,51.4,26.84,NW,317,2.2,2.2,28,0.00,,---,0.00,VWS V14.01,2013-07-07 14:41:00,
2013-07-07 09:46:00,87.8,50.7,26.84,NW,317,2.2,3.1,28,0.00,,---,0.00,VWS V14.01,2013-07-07 14:46:00,
2013-07-07 09:51:00,89.6,52.2,26.84,East,81,2.2,2.2,28,0.00,,---,0.00,VWS V14.01,2013-07-07 14:51:00,
2013-07-07 09:56:00,91.2,53.6,26.84,ENE,57,3.1,3.6,28,0.00,,---,0.00,VWS V14.01,2013-07-07 14:56:00,
2013-07-07 10:01:00,92.1,53.4,26.81,North,353,2.2,2.2,27,0.00,,---,0.00,VWS V14.01,2013-07-07 15:01:00,
2013-07-07 10:06:00,92.8,54.0,26.81,NE,47,3.1,3.1,27,0.00,,---,0.00,VWS V14.01,2013-07-07 15:06:00,
2013-07-07 10:11:00,91.9,53.2,26.81,NNE,26,4.0,4.0,27,0.00,,---,0.00,VWS V14.01,2013-07-07 15:11:00,
2013-07-07 10:16:00,91.9,53.2,26.81,ENE,60,2.7,3.1,27,0.00,,---,0.00,VWS V14.01,2013-07-07 15:16:00,
2013-07-07 10:21:00,92.3,53.5,26.81,NE,37,2.7,2.7,27,0.00,,---,0.00,VWS V14.01,2013-07-07 15:21:00,
2013-07-07 10:26:00,93.2,54.3,26.81,NE,37,2.7,4.0,27,0.00,,---,0.00,VWS V14.01,2013-07-07 15:26:00,
2013-07-07 10:31:00,92.7,53.8,26.81,NE,55,3.1,3.1,27,0.00,,---,0.00,VWS V14.01,2013-07-07 15:31:00,
2013-07-07 10:36:00,92.3,53.5,26.81,NE,46,3.6,5.4,27,0.00,,---,0.00,VWS V14.01,2013-07-07 15:36:00,
2013-07-07 10:41:00,92.3,53.5,26.81,NNE,33,3.6,3.6,27,0.00,,---,0.00,VWS V14.01,2013-07-07 15:41:00,
2013-07-07 10:46:00,92.3,53.5,26.81,NE,55,3.1,3.1,27,0.00,,---,0.00,VWS V14.01,2013-07-07 15:46:00,
2013-07-07 10:51:00,94.8,55.7,26.81,East,95,3.1,3.1,27,0.00,,---,0.00,VWS V14.01,2013-07-07 15:51:00,
2013-07-07 10:56:00,93.7,54.7,26.81,NE,41,4.0,4.0,27,0.00,,---,0.00,VWS V14.01,2013-07-07 15:56:00,
2013-07-07 11:01:00,93.4,54.4,26.81,NE,35,4.9,5.4,27,0.00,,---,0.00,VWS V14.01,2013-07-07 16:01:00,
2013-07-07 11:06:00,95.2,56.0,26.81,ENE,59,7.6,7.6,27,0.00,,---,0.00,VWS V14.01,2013-07-07 16:06:00,
2013-07-07 11:11:00,95.5,56.3,26.81,NNE,20,2.7,5.4,27,0.00,,---,0.00,VWS V14.01,2013-07-07 16:11:00,
2013-07-07 11:16:00,94.1,55.0,26.81,East,86,2.7,5.4,27,0.00,,---,0.00,VWS V14.01,2013-07-07 16:16:00,
2013-07-07 11:21:00,96.3,56.9,26.81,East,92,5.4,6.3,27,0.00,,---,0.00,VWS V14.01,2013-07-07 16:21:00,
2013-07-07 11:26:00,93.9,54.9,26.81,ENE,62,4.5,4.5,27,0.00,,---,0.00,VWS V14.01,2013-07-07 16:26:00,
2013-07-07 11:31:00,95.5,56.3,26.81,ENE,69,3.1,3.1,27,0.00,,---,0.00,VWS V14.01,2013-07-07 16:31:00,
2013-07-07 11:36:00,99.3,58.4,26.81,ESE,112,2.7,3.1,26,0.00,,---,0.00,VWS V14.01,2013-07-07 16:36:00,
2013-07-07 11:41:00,95.2,56.0,26.81,SE,125,2.7,3.6,27,0.00,,---,0.00,VWS V14.01,2013-07-07 16:41:00,
2013-07-07 11:46:00,94.8,55.7,26.84,SE,125,3.1,3.1,27,0.00,,---,0.00,VWS V14.01,2013-07-07 16:46:00,
2013-07-07 11:51:00,96.1,56.7,26.84,SE,125,3.1,4.0,27,0.00,,---,0.00,VWS V14.01,2013-07-07 16:51:00,
2013-07-07 11:56:00,97.9,57.2,26.84,SE,129,2.7,2.7,26,0.00,,---,0.00,VWS V14.01,2013-07-07 16:56:00,
2013-07-07 12:01:00,97.0,56.4,26.84,SE,129,2.7,2.7,26,0.00,,---,0.00,VWS V14.01,2013-07-07 17:01:00,
2013-07-07 12:06:00,98.2,57.5,26.84,SE,137,3.1,4.0,26,0.00,,---,0.00,VWS V14.01,2013-07-07 17:06:00,
2013-07-07 12:11:00,94.8,55.7,26.84,SE,137,3.1,3.1,27,0.00,,---,0.00,VWS V14.01,2013-07-07 17:11:00,
2013-07-07 12:16:00,94.3,55.2,26.84,SE,137,2.2,2.7,27,0.00,,---,0.00,VWS V14.01,2013-07-07 17:16:00,
2013-07-07 12:21:00,93.9,54.9,26.84,SE,139,2.7,2.7,27,0.00,,---,0.00,VWS V14.01,2013-07-07 17:21:00,
2013-07-07 12:26:00,93.2,54.3,26.84,SE,144,2.7,3.1,27,0.00,,---,0.00,VWS V14.01,2013-07-07 17:26:00,
2013-07-07 12:31:00,94.3,55.2,26.84,SSE,164,2.7,5.4,27,0.00,,---,0.00,VWS V14.01,2013-07-07 17:31:00,
2013-07-07 12:36:00,94.1,55.0,26.84,SSE,151,3.1,3.1,27,0.00,,---,0.00,VWS V14.01,2013-07-07 17:36:00,
2013-07-07 12:41:00,93.2,54.3,26.84,SSE,158,3.1,3.6,27,0.00,,---,0.00,VWS V14.01,2013-07-07 17:41:00,
2013-07-07 12:46:00,93.7,54.7,26.84,SE,134,3.6,4.0,27,0.00,,---,0.00,VWS V14.01,2013-07-07 17:46:00,
2013-07-07 12:51:00,92.3,53.5,26.84,SSE,147,3.6,3.6,27,0.00,,---,0.00,VWS V14.01,2013-07-07 17:51:00,
2013-07-07 12:56:00,91.8,53.1,26.84,SSE,148,3.1,3.1,27,0.00,,---,0.00,VWS V14.01,2013-07-07 17:56:00,
2013-07-07 13:01:00,90.7,53.1,26.84,South,178,3.1,5.4,28,0.00,,---,0.00,VWS V14.01,2013-07-07 18:01:00,
2013-07-07 13:06:00,90.3,52.8,26.84,South,190,3.6,3.6,28,0.00,,---,0.00,VWS V14.01,2013-07-07 18:06:00,
2013-07-07 13:11:00,95.9,56.6,26.84,SSE,160,6.3,6.3,27,0.00,,---,0.00,VWS V14.01,2013-07-07 18:11:00,
2013-07-07 13:16:00,94.8,55.7,26.87,South,187,3.6,5.4,27,0.00,,---,0.00,VWS V14.01,2013-07-07 18:16:00,
2013-07-07 13:21:00,96.4,57.0,26.87,South,170,3.6,3.6,27,0.00,,---,0.00,VWS V14.01,2013-07-07 18:21:00,
2013-07-07 13:26:00,95.4,56.1,26.87,SSE,160,5.4,5.4,27,0.00,,---,0.00,VWS V14.01,2013-07-07 18:26:00,
2013-07-07 13:31:00,93.0,54.1,26.87,SSE,165,4.0,4.0,27,0.00,,---,0.00,VWS V14.01,2013-07-07 18:31:00,
2013-07-07 13:36:00,95.2,56.0,26.87,SSE,168,5.8,5.8,27,0.00,,---,0.00,VWS V14.01,2013-07-07 18:36:00,
2013-07-07 13:41:00,94.5,55.3,26.87,SSE,157,2.7,3.6,27,0.00,,---,0.00,VWS V14.01,2013-07-07 18:41:00,
2013-07-07 13:46:00,95.4,56.1,26.87,SE,145,4.0,4.0,27,0.00,,---,0.00,VWS V14.01,2013-07-07 18:46:00,
2013-07-07 13:51:00,96.6,57.2,26.87,SE,137,2.7,3.1,27,0.00,,---,0.00,VWS V14.01,2013-07-07 18:51:00,
2013-07-07 13:56:00,98.1,57.4,26.87,SE,141,2.7,3.6,26,0.00,,---,0.00,VWS V14.01,2013-07-07 18:56:00,
2013-07-07 14:01:00,100.9,58.7,26.87,SE,130,3.6,3.6,25,0.00,,---,0.00,VWS V14.01,2013-07-07 19:01:00,
2013-07-07 14:06:00,99.9,58.9,26.87,SE,130,2.7,2.7,26,0.00,,---,0.00,VWS V14.01,2013-07-07 19:06:00,
2013-07-07 14:11:00,100.4,58.2,26.87,SSE,158,3.1,3.6,25,0.00,,---,0.00,VWS V14.01,2013-07-07 19:11:00,
2013-07-07 14:16:00,102.6,60.0,26.87,SSE,147,3.1,3.1,25,0.00,,---,0.00,VWS V14.01,2013-07-07 19:16:00,
2013-07-07 14:21:00,102.6,60.0,26.87,SE,144,3.6,3.6,25,0.00,,---,0.00,VWS V14.01,2013-07-07 19:21:00,
2013-07-07 14:26:00,97.0,56.4,26.87,SE,128,2.7,2.7,26,0.00,,---,0.00,VWS V14.01,2013-07-07 19:26:00,
2013-07-07 14:31:00,94.5,55.3,26.87,SE,129,3.6,3.6,27,0.00,,---,0.00,VWS V14.01,2013-07-07 19:31:00,
2013-07-07 14:36:00,94.3,55.2,26.87,SE,129,3.1,3.1,27,0.00,,---,0.00,VWS V14.01,2013-07-07 19:36:00,
2013-07-07 14:41:00,95.5,56.3,26.87,SE,129,3.1,3.1,27,0.00,,---,0.00,VWS V14.01,2013-07-07 19:41:00,
2013-07-07 14:46:00,92.8,54.0,26.84,SE,129,2.7,2.7,27,0.00,,---,0.00,VWS V14.01,2013-07-07 19:46:00,
2013-07-07 14:51:00,90.7,53.1,26.84,SE,129,4.5,4.5,28,0.00,,---,0.00,VWS V14.01,2013-07-07 19:51:00,
2013-07-07 14:56:00,90.1,52.7,26.84,SE,137,4.5,4.5,28,0.00,,---,0.00,VWS V14.01,2013-07-07 19:56:00,
2013-07-07 15:01:00,90.1,52.7,26.84,SE,136,3.6,4.9,28,0.00,,---,0.00,VWS V14.01,2013-07-07 20:01:00,
2013-07-07 15:06:00,90.0,52.5,26.84,SE,130,3.1,3.1,28,0.00,,---,0.00,VWS V14.01,2013-07-07 20:06:00,
2013-07-07 15:11:00,90.5,53.0,26.84,SE,130,3.6,3.6,28,0.00,,---,0.00,VWS V14.01,2013-07-07 20:11:00,
2013-07-07 15:16:00,91.8,53.1,26.84,SE,130,2.2,2.2,27,0.00,,---,0.00,VWS V14.01,2013-07-07 20:16:00,
2013-07-07 15:21:00,91.9,53.2,26.84,SE,130,0.0,0.0,27,0.00,,---,0.00,VWS V14.01,2013-07-07 20:21:00,
2013-07-07 15:26:00,92.1,53.4,26.84,SE,130,0.0,0.0,27,0.00,,---,0.00,VWS V14.01,2013-07-07 20:26:00,
2013-07-07 15:31:00,92.8,54.0,26.84,SE,130,2.7,2.7,27,0.00,,---,0.00,VWS V14.01,2013-07-07 20:31:00,
2013-07-07 15:36:00,92.7,53.8,26.84,SE,130,2.2,2.2,27,0.00,,---,0.00,VWS V14.01,2013-07-07 20:36:00,
2013-07-07 15:41:00,93.0,54.1,26.84,SE,130,2.7,2.7,27,0.00,,---,0.00,VWS V14.01,2013-07-07 20:41:00,
2013-07-07 15:46:00,93.6,54.6,26.84,SE,130,0.0,0.0,27,0.00,,---,0.00,VWS V14.01,2013-07-07 20:46:00,
2013-07-07 15:51:00,94.6,55.5,26.84,SE,130,0.0,0.0,27,0.00,,---,0.00,VWS V14.01,2013-07-07 20:51:00,
2013-07-07 15:56:00,93.6,54.6,26.84,SE,130,2.2,3.1,27,0.00,,---,0.00,VWS V14.01,2013-07-07 20:56:00,
2013-07-07 16:01:00,99.0,58.1,26.84,SE,130,2.7,2.7,26,0.00,,---,0.00,VWS V14.01,2013-07-07 21:01:00,
2013-07-07 16:06:00,95.9,56.6,26.84,SE,130,2.7,2.7,27,0.00,,---,0.00,VWS V14.01,2013-07-07 21:06:00,
2013-07-07 16:11:00,97.3,56.8,26.84,ESE,119,2.2,2.2,26,0.00,,---,0.00,VWS V14.01,2013-07-07 21:11:00,
2013-07-07 16:16:00,95.7,56.4,26.84,SE,135,4.0,4.0,27,0.00,,---,0.00,VWS V14.01,2013-07-07 21:16:00,
2013-07-07 16:21:00,96.3,56.9,26.84,SE,128,2.7,2.7,27,0.00,,---,0.00,VWS V14.01,2013-07-07 21:21:00,
2013-07-07 16:26:00,97.5,56.9,26.84,SE,128,4.0,4.0,26,0.00,,---,0.00,VWS V14.01,2013-07-07 21:26:00,
2013-07-07 16:31:00,97.2,56.6,26.84,SE,128,0.0,0.0,26,0.00,,---,0.00,VWS V14.01,2013-07-07 21:31:00,
2013-07-07 16:36:00,99.3,58.4,26.84,ESE,102,2.7,2.7,26,0.00,,---,0.00,VWS V14.01,2013-07-07 21:36:00,
2013-07-07 16:41:00,98.6,57.8,26.84,ESE,109,2.2,2.2,26,0.00,,---,0.00,VWS V14.01,2013-07-07 21:41:00,
2013-07-07 16:46:00,96.4,57.0,26.84,ESE,121,3.6,3.6,27,0.00,,---,0.00,VWS V14.01,2013-07-07 21:46:00,
2013-07-07 16:51:00,95.9,56.6,26.84,ESE,123,2.2,2.2,27,0.00,,---,0.00,VWS V14.01,2013-07-07 21:51:00,
2013-07-07 16:56:00,96.8,56.3,26.84,ESE,111,2.7,2.7,26,0.00,,---,0.00,VWS V14.01,2013-07-07 21:56:00,
2013-07-07 17:01:00,97.3,56.8,26.84,ESE,113,3.1,3.1,26,0.00,,---,0.00,VWS V14.01,2013-07-07 22:01:00,
2013-07-07 17:06:00,95.2,56.0,26.84,ESE,110,2.7,2.7,27,0.00,,---,0.00,VWS V14.01,2013-07-07 22:06:00,
2013-07-07 17:11:00,95.5,56.3,26.84,SE,124,3.6,3.6,27,0.00,,---,0.00,VWS V14.01,2013-07-07 22:11:00,
2013-07-07 17:16:00,96.1,56.7,26.84,ESE,111,3.1,3.1,27,0.00,,---,0.00,VWS V14.01,2013-07-07 22:16:00,
2013-07-07 17:21:00,97.5,56.9,26.84,ESE,115,3.1,3.1,26,0.00,,---,0.00,VWS V14.01,2013-07-07 22:21:00,
2013-07-07 17:26:00,94.8,55.7,26.84,ESE,104,3.1,3.1,27,0.00,,---,0.00,VWS V14.01,2013-07-07 22:26:00,
2013-07-07 17:31:00,94.8,55.7,26.81,ESE,122,2.7,2.7,27,0.00,,---,0.00,VWS V14.01,2013-07-07 22:31:00,
2013-07-07 17:36:00,93.9,54.9,26.81,ESE,121,3.6,4.9,27,0.00,,---,0.00,VWS V14.01,2013-07-07 22:36:00,
2013-07-07 17:41:00,95.2,56.0,26.81,ESE,121,4.0,4.0,27,0.00,,---,0.00,VWS V14.01,2013-07-07 22:41:00,
2013-07-07 17:46:00,94.8,55.7,26.84,ESE,120,3.1,3.1,27,0.00,,---,0.00,VWS V14.01,2013-07-07 22:46:00,
2013-07-07 17:51:00,95.5,56.3,26.84,East,88,3.6,3.6,27,0.00,,---,0.00,VWS V14.01,2013-07-07 22:51:00,
2013-07-07 17:56:00,93.0,54.1,26.84,ESE,123,4.9,4.9,27,0.00,,---,0.00,VWS V14.01,2013-07-07 22:56:00,
2013-07-07 18:01:00,93.6,54.6,26.81,SE,125,2.7,4.9,27,0.00,,---,0.00,VWS V14.01,2013-07-07 23:01:00,
2013-07-07 18:06:00,94.3,55.2,26.81,SE,125,3.1,3.1,27,0.00,,---,0.00,VWS V14.01,2013-07-07 23:06:00,
2013-07-07 18:11:00,92.1,53.4,26.81,SE,126,2.7,3.1,27,0.00,,---,0.00,VWS V14.01,2013-07-07 23:11:00,
2013-07-07 18:16:00,89.2,51.9,26.81,SE,126,3.6,3.6,28,0.00,,---,0.00,VWS V14.01,2013-07-07 23:16:00,
2013-07-07 18:21:00,89.6,52.2,26.81,SE,126,2.7,2.7,28,0.00,,---,0.00,VWS V14.01,2013-07-07 23:21:00,
2013-07-07 18:26:00,90.9,53.3,26.81,SE,126,2.7,2.7,28,0.00,,---,0.00,VWS V14.01,2013-07-07 23:26:00,
2013-07-07 18:31:00,91.9,53.2,26.81,SE,126,3.1,3.1,27,0.00,,---,0.00,VWS V14.01,2013-07-07 23:31:00,
2013-07-07 18:36:00,93.2,54.3,26.81,SE,126,2.2,2.7,27,0.00,,---,0.00,VWS V14.01,2013-07-07 23:36:00,
2013-07-07 18:41:00,93.7,54.7,26.81,SE,126,2.7,2.7,27,0.00,,---,0.00,VWS V14.01,2013-07-07 23:41:00,
2013-07-07 18:46:00,92.5,53.7,26.81,SE,126,2.7,2.7,27,0.00,,---,0.00,VWS V14.01,2013-07-07 23:46:00,
2013-07-07 18:51:00,90.7,53.1,26.81,SE,126,2.2,2.2,28,0.00,,---,0.00,VWS V14.01,2013-07-07 23:51:00,
2013-07-07 18:56:00,90.9,53.3,26.81,SE,126,2.2,2.2,28,0.00,,---,0.00,VWS V14.01,2013-07-07 23:56:00,
2013-07-07 19:01:00,92.1,53.4,26.81,SE,126,2.7,2.7,27,0.00,,---,0.00,VWS V14.01,2013-07-08 00:01:00,
2013-07-07 19:06:00,93.2,54.3,26.81,SE,126,0.0,0.0,27,0.00,,---,0.00,VWS V14.01,2013-07-08 00:06:00,
2013-07-07 19:11:00,91.8,53.1,26.81,SE,126,0.0,0.0,27,0.00,,---,0.00,VWS V14.01,2013-07-08 00:11:00,
2013-07-07 19:16:00,90.1,52.7,26.81,SE,126,0.0,0.0,28,0.00,,---,0.00,VWS V14.01,2013-07-08 00:16:00,
2013-07-07 19:21:00,90.7,53.1,26.81,SE,126,0.0,0.0,28,0.00,,---,0.00,VWS V14.01,2013-07-08 00:21:00,
2013-07-07 19:26:00,90.7,53.1,26.81,SE,126,0.0,0.0,28,0.00,,---,0.00,VWS V14.01,2013-07-08 00:26:00,
2013-07-07 19:31:00,88.2,51.0,26.84,SE,126,0.0,0.0,28,0.00,,---,0.00,VWS V14.01,2013-07-08 00:31:00,
2013-07-07 19:36:00,88.2,51.0,26.84,SE,126,2.2,2.2,28,0.00,,---,0.00,VWS V14.01,2013-07-08 00:36:00,
2013-07-07 19:41:00,91.0,53.4,26.84,SE,126,0.0,0.0,28,0.00,,---,0.00,VWS V14.01,2013-07-08 00:41:00,
2013-07-07 19:46:00,91.4,52.8,26.84,SE,126,0.0,0.0,27,0.00,,---,0.00,VWS V14.01,2013-07-08 00:46:00,
2013-07-07 19:51:00,90.5,53.0,26.84,SE,126,0.0,0.0,28,0.00,,---,0.00,VWS V14.01,2013-07-08 00:51:00,
2013-07-07 19:56:00,87.8,50.7,26.84,SE,126,0.0,0.0,28,0.00,,---,0.00,VWS V14.01,2013-07-08 00:56:00,
2013-07-07 20:01:00,84.6,48.8,26.81,SE,126,0.0,0.0,29,0.00,,---,0.00,VWS V14.01,2013-07-08 01:01:00,
2013-07-07 20:06:00,82.8,47.3,26.81,SE,126,0.0,0.0,29,0.00,,---,0.00,VWS V14.01,2013-07-08 01:06:00,
2013-07-07 20:11:00,82.4,47.0,26.81,NE,43,2.2,3.1,29,0.00,,---,0.00,VWS V14.01,2013-07-08 01:11:00,
2013-07-07 20:16:00,82.4,47.0,26.84,NE,47,3.6,3.6,29,0.00,,---,0.00,VWS V14.01,2013-07-08 01:16:00,
2013-07-07 20:21:00,82.4,47.0,26.84,NE,46,0.0,0.0,29,0.00,,---,0.00,VWS V14.01,2013-07-08 01:21:00,
2013-07-07 20:26:00,81.3,47.0,26.84,NE,46,0.0,0.0,30,0.00,,---,0.00,VWS V14.01,2013-07-08 01:26:00,
2013-07-07 20:31:00,80.6,46.3,26.84,NE,46,0.0,0.0,30,0.00,,---,0.00,VWS V14.01,2013-07-08 01:31:00,
2013-07-07 20:36:00,79.9,45.7,26.84,NE,46,0.0,0.0,30,0.00,,---,0.00,VWS V14.01,2013-07-08 01:36:00,
2013-07-07 20:41:00,79.5,45.4,26.84,NE,46,0.0,0.0,30,0.00,,---,0.00,VWS V14.01,2013-07-08 01:41:00,
2013-07-07 20:46:00,79.3,45.2,26.84,NE,46,0.0,0.0,30,0.00,,---,0.00,VWS V14.01,2013-07-08 01:46:00,
2013-07-07 20:51:00,79.2,45.1,26.84,NE,46,0.0,0.0,30,0.00,,---,0.00,VWS V14.01,2013-07-08 01:51:00,
2013-07-07 20:56:00,79.5,45.4,26.84,NE,46,2.7,2.7,30,0.00,,---,0.00,VWS V14.01,2013-07-08 01:56:00,
2013-07-07 21:01:00,79.0,44.9,26.84,NE,46,0.0,0.0,30,0.00,,---,0.00,VWS V14.01,2013-07-08 02:01:00,
2013-07-07 21:06:00,77.4,44.4,26.84,NE,46,0.0,0.0,31,0.00,,---,0.00,VWS V14.01,2013-07-08 02:06:00,
2013-07-07 21:11:00,77.0,44.1,26.84,NE,46,0.0,0.0,31,0.00,,---,0.00,VWS V14.01,2013-07-08 02:11:00,
2013-07-07 21:16:00,77.0,44.1,26.87,NE,46,2.7,2.7,31,0.00,,---,0.00,VWS V14.01,2013-07-08 02:16:00,
2013-07-07 21:21:00,77.4,44.4,26.87,NE,47,4.0,4.0,31,0.00,,---,0.00,VWS V14.01,2013-07-08 02:21:00,
2013-07-07 21:26:00,77.7,44.7,26.87,NE,46,0.0,0.0,31,0.00,,---,0.00,VWS V14.01,2013-07-08 02:26:00,
2013-07-07 21:31:00,77.2,44.2,26.84,NE,46,0.0,0.0,31,0.00,,---,0.00,VWS V14.01,2013-07-08 02:31:00,
2013-07-07 21:36:00,76.8,43.9,26.84,NE,46,0.0,0.0,31,0.00,,---,0.00,VWS V14.01,2013-07-08 02:36:00,
2013-07-07 21:41:00,76.5,43.6,26.84,NE,46,0.0,0.0,31,0.00,,---,0.00,VWS V14.01,2013-07-08 02:41:00,
2013-07-07 21:46:00,76.5,43.6,26.84,NE,46,0.0,0.0,31,0.00,,---,0.00,VWS V14.01,2013-07-08 02:46:00,
2013-07-07 21:51:00,76.3,43.5,26.84,NE,46,0.0,0.0,31,0.00,,---,0.00,VWS V14.01,2013-07-08 02:51:00,
2013-07-07 21:56:00,75.9,43.1,26.84,NE,46,0.0,0.0,31,0.00,,---,0.00,VWS V14.01,2013-07-08 02:56:00,
2013-07-07 22:01:00,75.9,43.1,26.84,NE,46,0.0,0.0,31,0.00,,---,0.00,VWS V14.01,2013-07-08 03:01:00,
2013-07-07 22:06:00,75.9,43.1,26.84,NE,46,0.0,0.0,31,0.00,,---,0.00,VWS V14.01,2013-07-08 03:06:00,
2013-07-07 22:11:00,76.1,43.3,26.84,NE,46,0.0,0.0,31,0.00,,---,0.00,VWS V14.01,2013-07-08 03:11:00,
2013-07-07 22:16:00,76.6,43.8,26.84,NE,45,0.0,2.7,31,0.00,,---,0.00,VWS V14.01,2013-07-08 03:16:00,
2013-07-07 22:21:00,76.3,43.5,26.84,NE,45,0.0,0.0,31,0.00,,---,0.00,VWS V14.01,2013-07-08 03:21:00,
2013-07-07 22:26:00,75.9,43.1,26.84,NE,45,0.0,0.0,31,0.00,,---,0.00,VWS V14.01,2013-07-08 03:26:00,
2013-07-07 22:31:00,75.4,42.7,26.87,NE,45,0.0,0.0,31,0.00,,---,0.00,VWS V14.01,2013-07-08 03:31:00,
2013-07-07 22:36:00,75.4,42.7,26.87,NE,45,0.0,0.0,31,0.00,,---,0.00,VWS V14.01,2013-07-08 03:36:00,
2013-07-07 22:41:00,75.6,42.8,26.87,NE,45,0.0,0.0,31,0.00,,---,0.00,VWS V14.01,2013-07-08 03:41:00,
2013-07-07 22:46:00,75.4,42.7,26.87,NE,45,0.0,2.2,31,0.00,,---,0.00,VWS V14.01,2013-07-08 03:46:00,
2013-07-07 22:51:00,75.4,42.7,26.87,NNE,21,3.1,3.1,31,0.00,,---,0.00,VWS V14.01,2013-07-08 03:51:00,
2013-07-07 22:56:00,77.4,44.4,26.87,NNE,20,5.8,5.8,31,0.00,,---,0.00,VWS V14.01,2013-07-08 03:56:00,
2013-07-07 23:01:00,78.6,45.5,26.87,NE,52,5.8,6.7,31,0.00,,---,0.00,VWS V14.01,2013-07-08 04:01:00,
2013-07-07 23:06:00,76.1,43.3,26.87,NE,39,4.9,4.9,31,0.00,,---,0.00,VWS V14.01,2013-07-08 04:06:00,
2013-07-07 23:11:00,75.4,42.7,26.87,NE,40,4.5,4.5,31,0.00,,---,0.00,VWS V14.01,2013-07-08 04:11:00,
2013-07-07 23:16:00,75.7,43.0,26.90,NE,39,3.6,3.6,31,0.00,,---,0.00,VWS V14.01,2013-07-08 04:16:00,
2013-07-07 23:21:00,76.3,43.5,26.90,NE,35,4.5,4.5,31,0.00,,---,0.00,VWS V14.01,2013-07-08 04:21:00,
2013-07-07 23:26:00,76.6,43.8,26.90,NE,50,2.7,4.0,31,0.00,,---,0.00,VWS V14.01,2013-07-08 04:26:00,
2013-07-07 23:31:00,76.6,43.8,26.90,NE,42,3.6,4.9,31,0.00,,---,0.00,VWS V14.01,2013-07-08 04:31:00,
2013-07-07 23:36:00,76.3,43.5,26.90,North,0,3.1,4.9,31,0.00,,---,0.00,VWS V14.01,2013-07-08 04:36:00,
2013-07-07 23:41:00,73.9,41.4,26.90,ESE,104,3.1,3.1,31,0.00,,---,0.00,VWS V14.01,2013-07-08 04:41:00,
2013-07-07 23:46:00,72.1,40.7,26.90,ESE,116,4.9,4.9,32,0.00,,---,0.00,VWS V14.01,2013-07-08 04:46:00,
2013-07-07 23:51:00,71.6,40.2,26.90,ESE,121,4.0,4.0,32,0.00,,---,0.00,VWS V14.01,2013-07-08 04:51:00,
2013-07-07 23:56:00,71.6,40.2,26.90,North,357,3.6,3.6,32,0.00,,---,0.00,VWS V14.01,2013-07-08 04:56:00,